sensor_id;sensor_type;location;lat;lon;timestamp;temperature;humidity
55812;DHT22;41742;52.048;6.092;2022-09-09T00:04:10;15.70;99.90
55812;DHT22;41742;52.048;6.092;2022-09-09T00:09:45;15.70;99.90
55812;DHT22;41742;52.048;6.092;2022-09-09T00:12:15;15.60;99.90
55812;DHT22;41742;52.048;6.092;2022-09-09T00:19:59;15.50;99.90
55812;DHT22;41742;52.048;6.092;2022-09-09T00:22:29;15.50;99.90
55812;DHT22;41742;52.048;6.092;2022-09-09T00:25:24;15.50;99.90
55812;DHT22;41742;52.048;6.092;2022-09-09T00:27:52;15.50;99.90
55812;DHT22;41742;52.048;6.092;2022-09-09T00:30:22;15.50;99.90
55812;DHT22;41742;52.048;6.092;2022-09-09T00:32:54;15.50;99.90
55812;DHT22;41742;52.048;6.092;2022-09-09T00:35:29;15.50;99.90
55812;DHT22;41742;52.048;6.092;2022-09-09T00:38:00;15.50;99.90
55812;DHT22;41742;52.048;6.092;2022-09-09T00:40:34;15.50;99.90
55812;DHT22;41742;52.048;6.092;2022-09-09T00:43:29;15.50;99.90
55812;DHT22;41742;52.048;6.092;2022-09-09T00:51:43;15.40;99.90
55812;DHT22;41742;52.048;6.092;2022-09-09T00:54:28;15.40;99.90
55812;DHT22;41742;52.048;6.092;2022-09-09T00:57:31;15.40;99.90
55812;DHT22;41742;52.048;6.092;2022-09-09T01:02:26;15.40;99.90
55812;DHT22;41742;52.048;6.092;2022-09-09T01:04:53;15.30;99.90
55812;DHT22;41742;52.048;6.092;2022-09-09T01:07:20;15.40;99.90
55812;DHT22;41742;52.048;6.092;2022-09-09T01:09:56;15.30;99.90
55812;DHT22;41742;52.048;6.092;2022-09-09T01:12:38;15.40;99.90
55812;DHT22;41742;52.048;6.092;2022-09-09T01:15:14;15.40;99.90
55812;DHT22;41742;52.048;6.092;2022-09-09T01:18:07;15.20;99.90
55812;DHT22;41742;52.048;6.092;2022-09-09T01:28:20;15.20;99.90
55812;DHT22;41742;52.048;6.092;2022-09-09T01:30:48;15.10;99.90
55812;DHT22;41742;52.048;6.092;2022-09-09T01:33:17;15.00;99.90
55812;DHT22;41742;52.048;6.092;2022-09-09T01:35:57;15.00;99.90
55812;DHT22;41742;52.048;6.092;2022-09-09T01:38:31;15.00;99.90
55812;DHT22;41742;52.048;6.092;2022-09-09T01:40:58;15.00;99.90
55812;DHT22;41742;52.048;6.092;2022-09-09T01:43:31;15.00;99.90
55812;DHT22;41742;52.048;6.092;2022-09-09T01:45:59;15.00;99.90
55812;DHT22;41742;52.048;6.092;2022-09-09T01:48:27;15.00;99.90
55812;DHT22;41742;52.048;6.092;2022-09-09T01:51:05;15.00;99.90
55812;DHT22;41742;52.048;6.092;2022-09-09T01:53:31;15.00;99.90
55812;DHT22;41742;52.048;6.092;2022-09-09T01:56:14;15.00;99.90
55812;DHT22;41742;52.048;6.092;2022-09-09T01:58:59;15.00;99.90
55812;DHT22;41742;52.048;6.092;2022-09-09T02:04:40;14.80;99.90
55812;DHT22;41742;52.048;6.092;2022-09-09T02:07:38;14.80;99.90
55812;DHT22;41742;52.048;6.092;2022-09-09T02:10:16;14.70;99.90
55812;DHT22;41742;52.048;6.092;2022-09-09T02:13:09;14.80;99.90
55812;DHT22;41742;52.048;6.092;2022-09-09T02:18:12;14.70;99.90
55812;DHT22;41742;52.048;6.092;2022-09-09T02:20:39;14.70;99.90
55812;DHT22;41742;52.048;6.092;2022-09-09T02:23:06;14.70;99.90
55812;DHT22;41742;52.048;6.092;2022-09-09T02:25:34;14.70;99.90
55812;DHT22;41742;52.048;6.092;2022-09-09T02:28:12;14.70;99.90
55812;DHT22;41742;52.048;6.092;2022-09-09T02:30:39;14.70;99.90
55812;DHT22;41742;52.048;6.092;2022-09-09T02:33:07;14.70;99.90
55812;DHT22;41742;52.048;6.092;2022-09-09T02:35:43;14.60;99.90
55812;DHT22;41742;52.048;6.092;2022-09-09T02:38:13;14.60;99.90
55812;DHT22;41742;52.048;6.092;2022-09-09T02:40:46;14.50;99.90
55812;DHT22;41742;52.048;6.092;2022-09-09T02:43:14;14.50;99.90
55812;DHT22;41742;52.048;6.092;2022-09-09T02:45:53;14.40;99.90
55812;DHT22;41742;52.048;6.092;2022-09-09T02:51:08;14.30;99.90
55812;DHT22;41742;52.048;6.092;2022-09-09T02:53:51;14.40;99.90
55812;DHT22;41742;52.048;6.092;2022-09-09T02:56:23;14.40;99.90
55812;DHT22;41742;52.048;6.092;2022-09-09T02:58:54;14.40;99.90
55812;DHT22;41742;52.048;6.092;2022-09-09T03:01:21;14.30;99.90
55812;DHT22;41742;52.048;6.092;2022-09-09T03:03:46;14.30;99.90
55812;DHT22;41742;52.048;6.092;2022-09-09T03:06:15;14.30;99.90
55812;DHT22;41742;52.048;6.092;2022-09-09T03:08:43;14.30;99.90
55812;DHT22;41742;52.048;6.092;2022-09-09T03:11:10;14.30;99.90
55812;DHT22;41742;52.048;6.092;2022-09-09T03:13:36;14.20;99.90
55812;DHT22;41742;52.048;6.092;2022-09-09T03:16:03;14.20;99.90
55812;DHT22;41742;52.048;6.092;2022-09-09T03:18:33;14.20;99.90
55812;DHT22;41742;52.048;6.092;2022-09-09T03:21:00;14.20;99.90
55812;DHT22;41742;52.048;6.092;2022-09-09T03:23:26;14.20;99.90
55812;DHT22;41742;52.048;6.092;2022-09-09T03:25:52;14.20;99.90
55812;DHT22;41742;52.048;6.092;2022-09-09T03:28:26;14.20;99.90
55812;DHT22;41742;52.048;6.092;2022-09-09T03:31:01;14.20;99.90
55812;DHT22;41742;52.048;6.092;2022-09-09T03:33:28;14.30;99.90
55812;DHT22;41742;52.048;6.092;2022-09-09T03:35:55;14.20;99.90
55812;DHT22;41742;52.048;6.092;2022-09-09T03:38:23;14.20;99.90
55812;DHT22;41742;52.048;6.092;2022-09-09T03:40:54;14.10;99.90
55812;DHT22;41742;52.048;6.092;2022-09-09T03:43:24;14.10;99.90
55812;DHT22;41742;52.048;6.092;2022-09-09T03:45:51;14.10;99.90
55812;DHT22;41742;52.048;6.092;2022-09-09T03:48:18;14.10;99.90
55812;DHT22;41742;52.048;6.092;2022-09-09T03:50:49;14.10;99.90
55812;DHT22;41742;52.048;6.092;2022-09-09T03:53:16;14.10;99.90
55812;DHT22;41742;52.048;6.092;2022-09-09T03:55:48;14.10;99.90
55812;DHT22;41742;52.048;6.092;2022-09-09T03:58:15;14.10;99.90
55812;DHT22;41742;52.048;6.092;2022-09-09T04:00:42;14.20;99.90
55812;DHT22;41742;52.048;6.092;2022-09-09T04:03:11;14.20;99.90
55812;DHT22;41742;52.048;6.092;2022-09-09T04:05:39;14.10;99.90
55812;DHT22;41742;52.048;6.092;2022-09-09T04:08:07;14.10;99.90
55812;DHT22;41742;52.048;6.092;2022-09-09T04:10:34;14.10;99.90
55812;DHT22;41742;52.048;6.092;2022-09-09T04:13:03;14.10;99.90
55812;DHT22;41742;52.048;6.092;2022-09-09T04:15:30;14.10;99.90
55812;DHT22;41742;52.048;6.092;2022-09-09T04:17:56;14.20;99.90
55812;DHT22;41742;52.048;6.092;2022-09-09T04:20:21;14.20;99.90
55812;DHT22;41742;52.048;6.092;2022-09-09T04:22:47;14.20;99.90
55812;DHT22;41742;52.048;6.092;2022-09-09T04:25:13;14.20;99.90
55812;DHT22;41742;52.048;6.092;2022-09-09T04:27:39;14.30;99.90
55812;DHT22;41742;52.048;6.092;2022-09-09T04:30:06;14.30;99.90
55812;DHT22;41742;52.048;6.092;2022-09-09T04:32:34;14.30;99.90
55812;DHT22;41742;52.048;6.092;2022-09-09T04:34:59;14.30;99.90
55812;DHT22;41742;52.048;6.092;2022-09-09T04:37:26;14.30;99.90
55812;DHT22;41742;52.048;6.092;2022-09-09T04:39:52;14.30;99.90
55812;DHT22;41742;52.048;6.092;2022-09-09T04:42:17;14.30;99.90
55812;DHT22;41742;52.048;6.092;2022-09-09T04:44:45;14.40;99.90
55812;DHT22;41742;52.048;6.092;2022-09-09T04:47:11;14.30;99.90
55812;DHT22;41742;52.048;6.092;2022-09-09T04:49:37;14.30;99.90
55812;DHT22;41742;52.048;6.092;2022-09-09T04:52:04;14.30;99.90
55812;DHT22;41742;52.048;6.092;2022-09-09T04:54:31;14.30;99.90
55812;DHT22;41742;52.048;6.092;2022-09-09T04:56:57;14.40;99.90
55812;DHT22;41742;52.048;6.092;2022-09-09T04:59:23;14.40;99.90
55812;DHT22;41742;52.048;6.092;2022-09-09T05:01:52;14.40;99.90
55812;DHT22;41742;52.048;6.092;2022-09-09T05:04:20;14.40;99.90
55812;DHT22;41742;52.048;6.092;2022-09-09T05:06:46;14.50;99.90
55812;DHT22;41742;52.048;6.092;2022-09-09T05:09:12;14.50;99.90
55812;DHT22;41742;52.048;6.092;2022-09-09T05:11:38;14.50;99.90
55812;DHT22;41742;52.048;6.092;2022-09-09T05:14:09;14.50;99.90
55812;DHT22;41742;52.048;6.092;2022-09-09T05:16:36;14.50;99.90
55812;DHT22;41742;52.048;6.092;2022-09-09T05:19:02;14.50;99.90
55812;DHT22;41742;52.048;6.092;2022-09-09T05:21:38;14.50;99.90
55812;DHT22;41742;52.048;6.092;2022-09-09T05:24:04;14.60;99.90
55812;DHT22;41742;52.048;6.092;2022-09-09T05:26:30;14.50;99.90
55812;DHT22;41742;52.048;6.092;2022-09-09T05:28:57;14.60;99.90
55812;DHT22;41742;52.048;6.092;2022-09-09T05:31:24;14.50;99.90
55812;DHT22;41742;52.048;6.092;2022-09-09T05:33:53;14.50;99.90
55812;DHT22;41742;52.048;6.092;2022-09-09T05:36:21;14.50;99.90
55812;DHT22;41742;52.048;6.092;2022-09-09T05:38:50;14.50;99.90
55812;DHT22;41742;52.048;6.092;2022-09-09T05:41:16;14.60;99.90
55812;DHT22;41742;52.048;6.092;2022-09-09T05:43:44;14.60;99.90
55812;DHT22;41742;52.048;6.092;2022-09-09T05:46:13;14.60;99.90
55812;DHT22;41742;52.048;6.092;2022-09-09T05:48:41;14.70;99.90
55812;DHT22;41742;52.048;6.092;2022-09-09T05:51:09;14.60;99.90
55812;DHT22;41742;52.048;6.092;2022-09-09T05:53:37;14.60;99.90
55812;DHT22;41742;52.048;6.092;2022-09-09T05:56:09;14.70;99.90
55812;DHT22;41742;52.048;6.092;2022-09-09T05:58:36;14.70;99.90
55812;DHT22;41742;52.048;6.092;2022-09-09T06:03:36;14.80;99.90
55812;DHT22;41742;52.048;6.092;2022-09-09T06:06:08;14.80;99.90
55812;DHT22;41742;52.048;6.092;2022-09-09T06:08:35;14.90;99.90
55812;DHT22;41742;52.048;6.092;2022-09-09T06:11:07;14.80;99.90
55812;DHT22;41742;52.048;6.092;2022-09-09T06:13:33;14.90;99.90
55812;DHT22;41742;52.048;6.092;2022-09-09T06:15:59;14.90;99.90
55812;DHT22;41742;52.048;6.092;2022-09-09T06:18:26;14.90;99.90
55812;DHT22;41742;52.048;6.092;2022-09-09T06:21:01;15.00;99.90
55812;DHT22;41742;52.048;6.092;2022-09-09T06:23:29;15.00;99.90
55812;DHT22;41742;52.048;6.092;2022-09-09T06:26:10;15.00;99.90
55812;DHT22;41742;52.048;6.092;2022-09-09T06:28:37;15.10;99.90
55812;DHT22;41742;52.048;6.092;2022-09-09T06:31:06;15.10;99.90
55812;DHT22;41742;52.048;6.092;2022-09-09T06:33:33;15.10;99.90
55812;DHT22;41742;52.048;6.092;2022-09-09T06:36:01;15.20;99.90
55812;DHT22;41742;52.048;6.092;2022-09-09T06:38:27;15.20;99.90
55812;DHT22;41742;52.048;6.092;2022-09-09T06:40:55;15.20;99.90
55812;DHT22;41742;52.048;6.092;2022-09-09T06:43:22;15.20;99.90
55812;DHT22;41742;52.048;6.092;2022-09-09T06:45:54;15.20;99.90
55812;DHT22;41742;52.048;6.092;2022-09-09T06:48:20;15.20;99.90
55812;DHT22;41742;52.048;6.092;2022-09-09T06:50:45;15.20;99.90
55812;DHT22;41742;52.048;6.092;2022-09-09T06:53:12;15.30;99.90
55812;DHT22;41742;52.048;6.092;2022-09-09T06:55:42;15.40;99.90
55812;DHT22;41742;52.048;6.092;2022-09-09T06:58:11;15.40;99.90
55812;DHT22;41742;52.048;6.092;2022-09-09T07:00:37;15.50;99.90
55812;DHT22;41742;52.048;6.092;2022-09-09T07:03:06;15.60;99.90
55812;DHT22;41742;52.048;6.092;2022-09-09T07:05:31;15.70;99.90
55812;DHT22;41742;52.048;6.092;2022-09-09T07:07:57;15.80;99.90
55812;DHT22;41742;52.048;6.092;2022-09-09T07:10:24;15.80;99.90
55812;DHT22;41742;52.048;6.092;2022-09-09T07:12:51;15.90;99.90
55812;DHT22;41742;52.048;6.092;2022-09-09T07:15:23;15.90;99.90
55812;DHT22;41742;52.048;6.092;2022-09-09T07:17:49;16.00;99.90
55812;DHT22;41742;52.048;6.092;2022-09-09T07:20:15;16.00;99.90
55812;DHT22;41742;52.048;6.092;2022-09-09T07:22:41;16.00;99.90
55812;DHT22;41742;52.048;6.092;2022-09-09T07:25:08;16.10;99.90
55812;DHT22;41742;52.048;6.092;2022-09-09T07:27:34;16.10;99.90
55812;DHT22;41742;52.048;6.092;2022-09-09T07:30:00;16.00;99.90
55812;DHT22;41742;52.048;6.092;2022-09-09T07:32:25;16.10;99.90
55812;DHT22;41742;52.048;6.092;2022-09-09T07:34:51;16.10;99.90
55812;DHT22;41742;52.048;6.092;2022-09-09T07:37:17;16.10;99.90
55812;DHT22;41742;52.048;6.092;2022-09-09T07:39:44;16.20;99.90
55812;DHT22;41742;52.048;6.092;2022-09-09T07:42:10;16.30;99.90
55812;DHT22;41742;52.048;6.092;2022-09-09T07:44:39;16.40;99.90
55812;DHT22;41742;52.048;6.092;2022-09-09T07:47:11;16.50;99.90
55812;DHT22;41742;52.048;6.092;2022-09-09T07:49:44;16.50;99.90
55812;DHT22;41742;52.048;6.092;2022-09-09T07:52:13;16.50;99.90
55812;DHT22;41742;52.048;6.092;2022-09-09T07:54:41;16.60;99.90
55812;DHT22;41742;52.048;6.092;2022-09-09T07:57:07;16.50;99.90
55812;DHT22;41742;52.048;6.092;2022-09-09T07:59:35;16.50;99.90
55812;DHT22;41742;52.048;6.092;2022-09-09T08:02:01;16.50;99.90
55812;DHT22;41742;52.048;6.092;2022-09-09T08:04:28;16.50;99.90
55812;DHT22;41742;52.048;6.092;2022-09-09T08:06:57;16.70;99.90
55812;DHT22;41742;52.048;6.092;2022-09-09T08:09:26;16.80;99.90
55812;DHT22;41742;52.048;6.092;2022-09-09T08:11:56;16.90;99.90
55812;DHT22;41742;52.048;6.092;2022-09-09T08:14:23;16.80;99.90
55812;DHT22;41742;52.048;6.092;2022-09-09T08:16:50;16.90;99.90
55812;DHT22;41742;52.048;6.092;2022-09-09T08:19:19;16.90;99.90
55812;DHT22;41742;52.048;6.092;2022-09-09T08:21:46;17.00;99.90
55812;DHT22;41742;52.048;6.092;2022-09-09T08:24:12;17.00;99.90
55812;DHT22;41742;52.048;6.092;2022-09-09T08:26:43;17.10;99.90
55812;DHT22;41742;52.048;6.092;2022-09-09T08:29:12;17.10;99.90
55812;DHT22;41742;52.048;6.092;2022-09-09T08:31:41;17.20;99.90
55812;DHT22;41742;52.048;6.092;2022-09-09T08:34:08;17.20;99.90
55812;DHT22;41742;52.048;6.092;2022-09-09T08:36:37;17.20;99.90
55812;DHT22;41742;52.048;6.092;2022-09-09T08:39:05;17.10;99.90
55812;DHT22;41742;52.048;6.092;2022-09-09T08:55:54;17.40;99.90
55812;DHT22;41742;52.048;6.092;2022-09-09T08:58:35;17.40;99.90
55812;DHT22;41742;52.048;6.092;2022-09-09T09:09:01;17.30;99.90
55812;DHT22;41742;52.048;6.092;2022-09-09T09:11:37;17.20;99.90
55812;DHT22;41742;52.048;6.092;2022-09-09T09:14:11;17.20;99.90
55812;DHT22;41742;52.048;6.092;2022-09-09T09:16:41;17.20;99.90
55812;DHT22;41742;52.048;6.092;2022-09-09T09:19:14;17.30;99.90
55812;DHT22;41742;52.048;6.092;2022-09-09T09:21:43;17.20;99.90
55812;DHT22;41742;52.048;6.092;2022-09-09T09:24:23;17.30;99.90
55812;DHT22;41742;52.048;6.092;2022-09-09T09:26:51;17.40;99.90
55812;DHT22;41742;52.048;6.092;2022-09-09T09:29:20;17.50;99.90
55812;DHT22;41742;52.048;6.092;2022-09-09T09:31:51;17.40;99.90
55812;DHT22;41742;52.048;6.092;2022-09-09T09:34:17;17.40;99.90
55812;DHT22;41742;52.048;6.092;2022-09-09T09:36:55;17.40;99.90
55812;DHT22;41742;52.048;6.092;2022-09-09T09:41:56;17.70;99.90
55812;DHT22;41742;52.048;6.092;2022-09-09T09:44:29;17.80;99.90
55812;DHT22;41742;52.048;6.092;2022-09-09T09:47:19;18.00;99.90
55812;DHT22;41742;52.048;6.092;2022-09-09T09:50:00;18.20;99.90
55812;DHT22;41742;52.048;6.092;2022-09-09T09:52:32;18.00;99.90
55812;DHT22;41742;52.048;6.092;2022-09-09T09:55:03;17.90;99.90
55812;DHT22;41742;52.048;6.092;2022-09-09T09:57:33;17.80;99.90
55812;DHT22;41742;52.048;6.092;2022-09-09T10:00:18;17.90;99.90
55812;DHT22;41742;52.048;6.092;2022-09-09T10:02:50;18.10;99.90
55812;DHT22;41742;52.048;6.092;2022-09-09T10:05:22;18.20;99.90
55812;DHT22;41742;52.048;6.092;2022-09-09T10:08:13;18.20;99.90
55812;DHT22;41742;52.048;6.092;2022-09-09T10:13:19;18.20;99.90
55812;DHT22;41742;52.048;6.092;2022-09-09T10:16:52;18.20;99.90
55812;DHT22;41742;52.048;6.092;2022-09-09T10:19:01;18.30;99.90
55812;DHT22;41742;52.048;6.092;2022-09-09T10:21:47;18.30;99.90
55812;DHT22;41742;52.048;6.092;2022-09-09T10:27:02;18.20;99.90
55812;DHT22;41742;52.048;6.092;2022-09-09T10:32:33;18.20;99.90
55812;DHT22;41742;52.048;6.092;2022-09-09T10:35:12;18.20;99.90
55812;DHT22;41742;52.048;6.092;2022-09-09T10:40:47;18.00;99.90
55812;DHT22;41742;52.048;6.092;2022-09-09T10:48:54;17.80;99.90
55812;DHT22;41742;52.048;6.092;2022-09-09T10:51:42;18.00;99.90
55812;DHT22;41742;52.048;6.092;2022-09-09T10:57:32;18.00;99.90
55812;DHT22;41742;52.048;6.092;2022-09-09T11:00:04;17.90;99.90
55812;DHT22;41742;52.048;6.092;2022-09-09T11:02:33;17.90;99.90
55812;DHT22;41742;52.048;6.092;2022-09-09T11:05:04;17.80;99.90
55812;DHT22;41742;52.048;6.092;2022-09-09T11:10:12;17.80;99.90
55812;DHT22;41742;52.048;6.092;2022-09-09T11:12:41;17.90;99.90
55812;DHT22;41742;52.048;6.092;2022-09-09T11:15:20;18.00;99.90
55812;DHT22;41742;52.048;6.092;2022-09-09T11:17:52;18.10;99.90
55812;DHT22;41742;52.048;6.092;2022-09-09T11:20:20;18.20;99.90
55812;DHT22;41742;52.048;6.092;2022-09-09T11:25:41;18.40;99.90
55812;DHT22;41742;52.048;6.092;2022-09-09T11:28:51;18.30;99.90
55812;DHT22;41742;52.048;6.092;2022-09-09T11:37:50;18.00;99.90
55812;DHT22;41742;52.048;6.092;2022-09-09T11:40:25;18.00;99.90
55812;DHT22;41742;52.048;6.092;2022-09-09T11:43:04;18.10;99.90
55812;DHT22;41742;52.048;6.092;2022-09-09T11:45:32;18.20;99.90
55812;DHT22;41742;52.048;6.092;2022-09-09T11:48:00;18.20;99.90
55812;DHT22;41742;52.048;6.092;2022-09-09T11:53:23;18.30;99.90
55812;DHT22;41742;52.048;6.092;2022-09-09T11:56:07;18.20;99.90
55812;DHT22;41742;52.048;6.092;2022-09-09T11:58:41;18.00;99.90
55812;DHT22;41742;52.048;6.092;2022-09-09T12:01:27;17.80;99.90
55812;DHT22;41742;52.048;6.092;2022-09-09T12:14:44;17.70;99.90
55812;DHT22;41742;52.048;6.092;2022-09-09T12:17:24;17.70;99.90
55812;DHT22;41742;52.048;6.092;2022-09-09T12:20:12;17.60;99.90
55812;DHT22;41742;52.048;6.092;2022-09-09T12:30:24;17.80;99.90
55812;DHT22;41742;52.048;6.092;2022-09-09T12:33:08;17.90;99.90
55812;DHT22;41742;52.048;6.092;2022-09-09T12:35:36;17.80;99.90
55812;DHT22;41742;52.048;6.092;2022-09-09T12:38:05;17.90;99.90
55812;DHT22;41742;52.048;6.092;2022-09-09T12:40:35;17.90;99.90
55812;DHT22;41742;52.048;6.092;2022-09-09T12:43:02;17.90;99.90
55812;DHT22;41742;52.048;6.092;2022-09-09T12:45:30;17.80;99.90
55812;DHT22;41742;52.048;6.092;2022-09-09T12:50:33;17.80;99.90
55812;DHT22;41742;52.048;6.092;2022-09-09T12:53:08;17.80;99.90
55812;DHT22;41742;52.048;6.092;2022-09-09T12:55:37;18.10;99.90
55812;DHT22;41742;52.048;6.092;2022-09-09T12:58:05;18.10;99.90
55812;DHT22;41742;52.048;6.092;2022-09-09T13:00:33;18.20;99.90
55812;DHT22;41742;52.048;6.092;2022-09-09T13:03:14;18.20;99.90
55812;DHT22;41742;52.048;6.092;2022-09-09T13:05:41;18.30;99.90
55812;DHT22;41742;52.048;6.092;2022-09-09T13:08:15;18.40;99.90
55812;DHT22;41742;52.048;6.092;2022-09-09T13:11:01;18.50;99.90
55812;DHT22;41742;52.048;6.092;2022-09-09T13:13:42;18.50;99.90
55812;DHT22;41742;52.048;6.092;2022-09-09T13:16:41;18.50;99.90
55812;DHT22;41742;52.048;6.092;2022-09-09T13:19:16;18.60;99.90
55812;DHT22;41742;52.048;6.092;2022-09-09T13:21:42;18.50;99.90
55812;DHT22;41742;52.048;6.092;2022-09-09T13:24:33;18.40;99.90
55812;DHT22;41742;52.048;6.092;2022-09-09T13:27:05;18.30;99.90
55812;DHT22;41742;52.048;6.092;2022-09-09T13:29:51;18.20;99.90
55812;DHT22;41742;52.048;6.092;2022-09-09T13:32:20;18.20;99.90
55812;DHT22;41742;52.048;6.092;2022-09-09T13:34:54;18.50;99.90
55812;DHT22;41742;52.048;6.092;2022-09-09T13:37:36;18.80;99.90
55812;DHT22;41742;52.048;6.092;2022-09-09T13:40:03;19.00;99.90
55812;DHT22;41742;52.048;6.092;2022-09-09T13:42:33;19.10;99.90
55812;DHT22;41742;52.048;6.092;2022-09-09T13:45:01;19.10;99.90
55812;DHT22;41742;52.048;6.092;2022-09-09T13:47:33;19.10;99.90
55812;DHT22;41742;52.048;6.092;2022-09-09T13:50:20;19.10;99.90
55812;DHT22;41742;52.048;6.092;2022-09-09T13:52:47;18.80;99.90
55812;DHT22;41742;52.048;6.092;2022-09-09T13:55:15;18.50;99.90
55812;DHT22;41742;52.048;6.092;2022-09-09T13:57:51;18.50;99.90
55812;DHT22;41742;52.048;6.092;2022-09-09T14:00:17;18.60;99.90
55812;DHT22;41742;52.048;6.092;2022-09-09T14:02:43;18.70;99.90
55812;DHT22;41742;52.048;6.092;2022-09-09T14:05:09;18.80;99.90
55812;DHT22;41742;52.048;6.092;2022-09-09T14:07:38;18.80;99.90
55812;DHT22;41742;52.048;6.092;2022-09-09T14:10:05;18.60;99.90
55812;DHT22;41742;52.048;6.092;2022-09-09T14:12:30;18.50;99.90
55812;DHT22;41742;52.048;6.092;2022-09-09T14:14:56;18.60;99.90
55812;DHT22;41742;52.048;6.092;2022-09-09T14:17:22;18.40;99.90
55812;DHT22;41742;52.048;6.092;2022-09-09T14:19:48;18.30;99.90
55812;DHT22;41742;52.048;6.092;2022-09-09T14:22:14;18.20;99.90
55812;DHT22;41742;52.048;6.092;2022-09-09T14:24:39;18.30;99.90
55812;DHT22;41742;52.048;6.092;2022-09-09T14:27:06;18.30;99.90
55812;DHT22;41742;52.048;6.092;2022-09-09T14:29:31;18.40;99.90
55812;DHT22;41742;52.048;6.092;2022-09-09T14:31:58;18.40;99.90
55812;DHT22;41742;52.048;6.092;2022-09-09T14:34:26;18.70;99.90
55812;DHT22;41742;52.048;6.092;2022-09-09T14:36:52;19.10;99.90
55812;DHT22;41742;52.048;6.092;2022-09-09T14:39:17;19.30;99.90
55812;DHT22;41742;52.048;6.092;2022-09-09T14:41:43;19.10;99.90
55812;DHT22;41742;52.048;6.092;2022-09-09T14:44:08;19.10;99.90
55812;DHT22;41742;52.048;6.092;2022-09-09T14:46:35;19.00;99.90
55812;DHT22;41742;52.048;6.092;2022-09-09T14:49:01;18.60;99.90
55812;DHT22;41742;52.048;6.092;2022-09-09T14:51:27;18.50;99.90
55812;DHT22;41742;52.048;6.092;2022-09-09T14:53:57;18.40;99.90
55812;DHT22;41742;52.048;6.092;2022-09-09T14:56:27;18.50;99.90
55812;DHT22;41742;52.048;6.092;2022-09-09T14:58:56;18.50;99.90
55812;DHT22;41742;52.048;6.092;2022-09-09T15:01:23;18.40;99.90
55812;DHT22;41742;52.048;6.092;2022-09-09T15:03:58;18.50;99.90
55812;DHT22;41742;52.048;6.092;2022-09-09T15:06:25;18.40;99.90
55812;DHT22;41742;52.048;6.092;2022-09-09T15:08:52;18.60;99.90
55812;DHT22;41742;52.048;6.092;2022-09-09T15:11:19;18.50;99.90
55812;DHT22;41742;52.048;6.092;2022-09-09T15:13:46;18.50;99.90
55812;DHT22;41742;52.048;6.092;2022-09-09T15:16:14;18.60;99.90
55812;DHT22;41742;52.048;6.092;2022-09-09T15:18:40;18.70;99.90
55812;DHT22;41742;52.048;6.092;2022-09-09T15:21:09;18.80;99.90
55812;DHT22;41742;52.048;6.092;2022-09-09T15:23:35;19.00;99.90
55812;DHT22;41742;52.048;6.092;2022-09-09T15:26:02;18.90;99.90
55812;DHT22;41742;52.048;6.092;2022-09-09T15:28:28;18.90;99.90
55812;DHT22;41742;52.048;6.092;2022-09-09T15:30:55;18.80;99.90
55812;DHT22;41742;52.048;6.092;2022-09-09T15:33:22;18.70;99.90
55812;DHT22;41742;52.048;6.092;2022-09-09T15:35:48;18.70;99.90
55812;DHT22;41742;52.048;6.092;2022-09-09T15:38:15;18.60;99.90
55812;DHT22;41742;52.048;6.092;2022-09-09T15:40:42;18.70;99.90
55812;DHT22;41742;52.048;6.092;2022-09-09T15:43:08;18.60;99.90
55812;DHT22;41742;52.048;6.092;2022-09-09T15:45:36;18.60;99.90
55812;DHT22;41742;52.048;6.092;2022-09-09T15:48:03;18.60;99.90
55812;DHT22;41742;52.048;6.092;2022-09-09T15:50:29;18.50;99.90
55812;DHT22;41742;52.048;6.092;2022-09-09T15:52:58;18.40;99.90
55812;DHT22;41742;52.048;6.092;2022-09-09T15:55:24;18.40;99.90
55812;DHT22;41742;52.048;6.092;2022-09-09T15:57:51;18.50;99.90
55812;DHT22;41742;52.048;6.092;2022-09-09T16:00:18;18.40;99.90
55812;DHT22;41742;52.048;6.092;2022-09-09T16:02:45;18.20;99.90
55812;DHT22;41742;52.048;6.092;2022-09-09T16:05:12;18.30;99.90
55812;DHT22;41742;52.048;6.092;2022-09-09T16:07:37;18.20;99.90
55812;DHT22;41742;52.048;6.092;2022-09-09T16:10:03;18.10;99.90
55812;DHT22;41742;52.048;6.092;2022-09-09T16:12:29;18.00;99.90
55812;DHT22;41742;52.048;6.092;2022-09-09T16:14:54;18.00;99.90
55812;DHT22;41742;52.048;6.092;2022-09-09T16:17:20;18.00;99.90
55812;DHT22;41742;52.048;6.092;2022-09-09T16:19:46;17.90;99.90
55812;DHT22;41742;52.048;6.092;2022-09-09T16:22:12;17.90;99.90
55812;DHT22;41742;52.048;6.092;2022-09-09T16:24:40;17.80;99.90
55812;DHT22;41742;52.048;6.092;2022-09-09T16:27:06;17.80;99.90
55812;DHT22;41742;52.048;6.092;2022-09-09T16:29:32;17.90;99.90
55812;DHT22;41742;52.048;6.092;2022-09-09T16:31:57;17.50;99.90
55812;DHT22;41742;52.048;6.092;2022-09-09T16:34:25;17.40;99.90
55812;DHT22;41742;52.048;6.092;2022-09-09T16:36:51;17.10;99.90
55812;DHT22;41742;52.048;6.092;2022-09-09T16:39:20;17.00;99.90
55812;DHT22;41742;52.048;6.092;2022-09-09T16:41:47;17.10;99.90
55812;DHT22;41742;52.048;6.092;2022-09-09T16:44:15;17.00;99.90
55812;DHT22;41742;52.048;6.092;2022-09-09T16:46:43;17.00;99.90
55812;DHT22;41742;52.048;6.092;2022-09-09T16:49:13;16.90;99.90
55812;DHT22;41742;52.048;6.092;2022-09-09T16:51:45;16.90;99.90
55812;DHT22;41742;52.048;6.092;2022-09-09T16:54:13;16.90;99.90
55812;DHT22;41742;52.048;6.092;2022-09-09T16:56:41;17.00;99.90
55812;DHT22;41742;52.048;6.092;2022-09-09T16:59:11;17.00;99.90
55812;DHT22;41742;52.048;6.092;2022-09-09T17:01:38;17.00;99.90
55812;DHT22;41742;52.048;6.092;2022-09-09T17:04:11;16.90;99.90
55812;DHT22;41742;52.048;6.092;2022-09-09T17:06:38;16.90;99.90
55812;DHT22;41742;52.048;6.092;2022-09-09T17:09:08;16.90;99.90
55812;DHT22;41742;52.048;6.092;2022-09-09T17:11:35;16.90;99.90
55812;DHT22;41742;52.048;6.092;2022-09-09T17:14:02;16.90;99.90
55812;DHT22;41742;52.048;6.092;2022-09-09T17:16:30;16.80;99.90
55812;DHT22;41742;52.048;6.092;2022-09-09T17:18:57;16.90;99.90
55812;DHT22;41742;52.048;6.092;2022-09-09T17:21:26;16.70;99.90
55812;DHT22;41742;52.048;6.092;2022-09-09T17:23:52;16.80;99.90
55812;DHT22;41742;52.048;6.092;2022-09-09T17:26:20;16.80;99.90
55812;DHT22;41742;52.048;6.092;2022-09-09T17:28:46;16.80;99.90
55812;DHT22;41742;52.048;6.092;2022-09-09T17:31:14;16.80;99.90
55812;DHT22;41742;52.048;6.092;2022-09-09T17:33:42;16.70;99.90
55812;DHT22;41742;52.048;6.092;2022-09-09T17:38:37;16.70;99.90
55812;DHT22;41742;52.048;6.092;2022-09-09T17:41:15;16.70;99.90
55812;DHT22;41742;52.048;6.092;2022-09-09T17:43:41;16.70;99.90
55812;DHT22;41742;52.048;6.092;2022-09-09T17:46:11;16.60;99.90
55812;DHT22;41742;52.048;6.092;2022-09-09T17:48:38;16.60;99.90
55812;DHT22;41742;52.048;6.092;2022-09-09T17:51:06;16.50;99.90